Southwest Washington Regional Airport
KKLS : now visible

Airfield :











YOU CAN JOIN US ON...

 
LOGIN :

Register | Disclaimer

   EN    FR    IT 

 









Legend :    VFR   Marginal VFR   IFR   Intensive IFR   Very Intensive IFR
Visi :
Ceiling :
>= 8 km
>= 3000ft
5 to 8 km
1000 to 3000 ft
1500m to 5 km
500 to 1000 ft
800 to 1500m
200 to 500 ft
< 800m
< 200 ft
Symbols :   Thunderstorms  Fog  Heavy snow  Heavy precipitations  Wind > 20 kt






- Airport Elevation : 20 ft


KKLS - Southwest Washington Regional

CURRENT METAR :
  • 021356Z AUTO 00000KT 10SM CLR M05/M06 A3019 RMK AO2 SLP226 T10501061 FZRANO $

EXPIRED METARs :
  • 021256Z AUTO 00000KT 10SM CLR M05/M06 A3018 RMK AO2 SLP225 T10501061 FZRANO $
  • 021156Z AUTO 14003KT 10SM CLR M04/M06 A3017 RMK AO2 SLP221 T10441056 10028 21050 51004 FZRANO $

TAF N/A
KZSE FIR / North America



MET'MAP, your aeronautical weather chart ! - Copyright ORBIFLY December 2007 - Disclaimer

ORBIFLY MET'MAP TEAM :

Programming & Development : Alexandra Zaïnal
Original concept : Baudouin d'Aumeries
Technical & hardware support : Manuel Goepfert
Assistance : Marc-Olivier Méhu




SOURCES & CREDITS :

   NOAA       Earth
Advisory